createdAt,value
2023-05-15T00:03:33.541Z,8.07
2023-05-15T00:07:36.272Z,8.09
2023-05-15T00:11:38.290Z,7.99
2023-05-15T00:15:40.362Z,7.88
2023-05-15T00:19:42.529Z,7.90
2023-05-15T00:23:44.539Z,7.96
2023-05-15T00:27:46.643Z,8.03
2023-05-15T00:31:49.008Z,8.02
2023-05-15T00:35:51.174Z,7.94
2023-05-15T00:39:53.290Z,7.95
2023-05-15T00:43:55.802Z,7.96
2023-05-15T00:47:59.004Z,7.83
2023-05-15T00:52:03.581Z,7.77
2023-05-15T00:56:06.440Z,7.76
2023-05-15T01:00:10.510Z,7.77
2023-05-15T01:04:12.788Z,7.74
2023-05-15T01:08:22.512Z,7.72
2023-05-15T01:12:27.634Z,7.72
2023-05-15T01:16:29.691Z,7.63
2023-05-15T01:20:46.343Z,7.49
2023-05-15T01:25:29.510Z,7.47
2023-05-15T01:29:51.360Z,7.34
2023-05-15T01:33:59.121Z,7.17
2023-05-15T01:38:15.575Z,7.11
2023-05-15T01:42:19.402Z,7.14
2023-05-15T01:46:23.476Z,7.22
2023-05-15T01:50:27.792Z,7.10
2023-05-15T01:54:30.074Z,7.05
2023-05-15T01:58:32.364Z,7.06
2023-05-15T02:02:35.043Z,7.06
2023-05-15T02:06:37.995Z,7.01
2023-05-15T02:10:41.169Z,7.06
2023-05-15T02:14:43.947Z,7.09
2023-05-15T02:18:47.494Z,7.02
2023-05-15T02:22:49.563Z,7.01
2023-05-15T02:27:26.741Z,7.06
2023-05-15T02:31:38.116Z,7.07
2023-05-15T02:36:02.602Z,6.95
2023-05-15T02:40:08.365Z,6.80
2023-05-15T02:44:11.405Z,6.68
2023-05-15T02:48:14.720Z,6.69
2023-05-15T02:52:17.381Z,6.63
2023-05-15T02:56:19.481Z,6.59
2023-05-15T03:00:21.710Z,6.57
2023-05-15T03:04:23.856Z,6.58
2023-05-15T03:08:27.110Z,6.50
2023-05-15T03:12:29.126Z,6.48
2023-05-15T03:16:31.171Z,6.47
2023-05-15T03:20:33.233Z,6.52
2023-05-15T03:24:35.247Z,6.54
2023-05-15T03:28:37.798Z,6.55
2023-05-15T03:32:39.926Z,6.56
2023-05-15T03:36:41.972Z,6.57
2023-05-15T03:40:44.039Z,6.59
2023-05-15T03:44:46.027Z,6.62
2023-05-15T03:48:48.441Z,6.67
2023-05-15T03:52:50.590Z,6.71
2023-05-15T03:56:53.738Z,6.81
2023-05-15T04:00:55.833Z,6.88
2023-05-15T04:04:57.907Z,6.97
2023-05-15T04:08:59.994Z,7.05
2023-05-15T04:13:02.066Z,7.12
2023-05-15T04:17:04.328Z,6.98
2023-05-15T04:21:06.659Z,8.09
2023-05-15T04:25:09.522Z,8.83
2023-05-15T04:29:11.585Z,9.27
2023-05-15T04:33:13.721Z,11.54
2023-05-15T04:37:15.886Z,13.21
2023-05-15T04:41:18.566Z,14.86
2023-05-15T04:45:20.796Z,16.28
2023-05-15T04:49:22.824Z,17.42
2023-05-15T04:53:24.870Z,18.49
2023-05-15T04:57:27.121Z,18.95
2023-05-15T05:01:29.290Z,19.18
2023-05-15T05:05:31.498Z,19.41
2023-05-15T05:09:34.083Z,20.46
2023-05-15T05:13:36.114Z,21.67
2023-05-15T05:17:38.179Z,22.56
2023-05-15T05:21:40.210Z,22.29
2023-05-15T05:25:42.356Z,22.70
2023-05-15T05:29:44.601Z,23.49
2023-05-15T05:33:46.701Z,24.49
2023-05-15T05:37:48.733Z,25.50
2023-05-15T05:41:50.907Z,26.50
2023-05-15T05:45:53.036Z,27.39
2023-05-15T05:49:55.219Z,27.89
2023-05-15T05:53:57.349Z,27.17
2023-05-15T05:57:59.436Z,25.60
2023-05-15T06:02:01.571Z,26.01
2023-05-15T06:06:03.906Z,25.37
2023-05-15T06:10:09.408Z,25.33
2023-05-15T06:14:11.774Z,25.26
2023-05-15T06:18:14.075Z,25.15
2023-05-15T06:22:16.211Z,26.57
2023-05-15T06:26:18.325Z,27.13
2023-05-15T06:30:20.425Z,27.97
2023-05-15T06:34:22.417Z,28.82
2023-05-15T06:38:24.483Z,29.03
2023-05-15T06:42:27.004Z,28.26
2023-05-15T06:46:29.078Z,27.88
2023-05-15T06:50:31.160Z,27.78
2023-05-15T06:54:33.489Z,27.31
2023-05-15T06:58:35.567Z,28.00
2023-05-15T07:02:37.617Z,28.18
2023-05-15T07:06:39.643Z,28.79
2023-05-15T07:10:41.717Z,26.39
2023-05-15T07:14:43.774Z,22.18
2023-05-15T07:18:46.086Z,19.97
2023-05-15T07:22:55.813Z,18.92
2023-05-15T07:26:59.448Z,18.22
2023-05-15T07:31:02.959Z,17.63
2023-05-15T07:35:06.192Z,17.45
2023-05-15T07:39:08.246Z,17.22
2023-05-15T07:43:10.356Z,16.95
2023-05-15T07:47:12.524Z,16.68
2023-05-15T07:51:14.763Z,16.66
2023-05-15T07:55:16.786Z,16.59
2023-05-15T07:59:18.911Z,16.56
2023-05-15T08:03:21.125Z,16.46
2023-05-15T08:07:23.273Z,16.41
2023-05-15T08:11:25.274Z,16.42
2023-05-15T08:15:27.499Z,16.25
2023-05-15T08:19:29.617Z,16.13
2023-05-15T08:23:31.667Z,16.08
2023-05-15T08:27:33.720Z,16.15
2023-05-15T08:31:36.247Z,16.12
2023-05-15T08:35:38.374Z,16.22
2023-05-15T08:39:40.448Z,16.33
2023-05-15T08:43:44.058Z,16.49
2023-05-15T08:47:46.331Z,16.49
2023-05-15T08:51:48.753Z,16.46
2023-05-15T08:55:51.429Z,16.43
2023-05-15T08:59:54.480Z,16.27
2023-05-15T09:03:56.899Z,16.21
2023-05-15T09:08:03.373Z,16.33
2023-05-15T09:12:10.765Z,16.53
2023-05-15T09:16:13.048Z,16.78
2023-05-15T09:20:32.696Z,16.89
2023-05-15T09:24:37.903Z,16.85
2023-05-15T09:28:40.052Z,16.98
2023-05-15T09:32:42.203Z,17.15
2023-05-15T09:36:47.193Z,17.10
2023-05-15T09:40:49.319Z,17.02
2023-05-15T09:44:51.358Z,17.19
2023-05-15T09:48:56.283Z,17.34
2023-05-15T09:52:59.283Z,17.42
2023-05-15T09:57:11.785Z,17.55
2023-05-15T10:01:19.280Z,17.64
2023-05-15T10:05:28.652Z,17.62
2023-05-15T10:09:38.177Z,17.73
2023-05-15T10:13:40.604Z,17.96
2023-05-15T10:17:44.375Z,17.83
2023-05-15T10:21:47.508Z,17.96
2023-05-15T10:25:59.979Z,18.06
2023-05-15T10:30:04.139Z,18.06
2023-05-15T10:34:06.879Z,18.30
2023-05-15T10:38:10.574Z,18.51
2023-05-15T10:42:13.382Z,18.84
2023-05-15T10:46:16.690Z,19.08
2023-05-15T10:50:18.818Z,19.20
2023-05-15T10:54:22.261Z,19.24
2023-05-15T10:58:24.432Z,19.48
2023-05-15T11:02:29.471Z,19.47
2023-05-15T11:06:32.399Z,19.75
2023-05-15T11:10:34.312Z,19.62
2023-05-15T11:14:39.011Z,19.16
2023-05-15T11:18:41.208Z,18.84
2023-05-15T11:22:43.293Z,18.49
2023-05-15T11:26:45.363Z,18.06
2023-05-15T11:30:51.203Z,18.01
2023-05-15T11:35:00.180Z,18.03
2023-05-15T11:39:02.345Z,18.14
2023-05-15T11:43:06.593Z,18.24
2023-05-15T11:47:11.812Z,18.52
2023-05-15T11:51:25.896Z,18.64
2023-05-15T11:55:29.271Z,18.36
2023-05-15T11:59:34.051Z,18.17
2023-05-15T12:03:36.468Z,18.10
2023-05-15T12:07:40.908Z,18.02
2023-05-15T12:11:55.750Z,17.74
2023-05-15T12:15:58.420Z,16.90
2023-05-15T12:20:01.188Z,16.84
2023-05-15T12:24:08.254Z,16.15
2023-05-15T12:28:11.792Z,16.07
2023-05-15T12:32:13.908Z,16.42
2023-05-15T12:36:20.847Z,16.64
2023-05-15T12:40:24.006Z,16.87
2023-05-15T12:44:27.215Z,16.90
2023-05-15T12:48:32.028Z,16.71
2023-05-15T12:52:34.143Z,16.44
2023-05-15T12:56:36.166Z,16.27
2023-05-15T13:00:40.776Z,16.09
2023-05-15T13:04:42.826Z,16.00
2023-05-15T13:08:45.876Z,16.06
2023-05-15T13:12:52.109Z,16.19
2023-05-15T13:16:54.162Z,16.23
2023-05-15T13:20:56.192Z,15.99
2023-05-15T13:24:58.467Z,15.60
2023-05-15T13:29:01.535Z,15.02
2023-05-15T13:33:03.860Z,14.67
2023-05-15T13:37:05.976Z,14.13
2023-05-15T13:41:09.082Z,13.73
2023-05-15T13:45:16.398Z,13.80
2023-05-15T13:49:18.747Z,13.80
2023-05-15T13:53:21.275Z,13.64
2023-05-15T13:57:23.368Z,13.55
2023-05-15T14:01:25.448Z,13.64
2023-05-15T14:05:27.512Z,13.70
2023-05-15T14:09:29.589Z,13.72
2023-05-15T14:13:34.313Z,13.64
2023-05-15T14:17:36.395Z,13.69
2023-05-15T14:21:39.351Z,13.72
2023-05-15T14:25:41.503Z,13.84
2023-05-15T14:29:44.848Z,13.92
2023-05-15T14:33:46.931Z,13.87
2023-05-15T14:37:49.528Z,13.85
2023-05-15T14:41:51.600Z,13.85
2023-05-15T14:45:53.660Z,13.89
2023-05-15T14:49:55.722Z,13.98
2023-05-15T14:53:58.124Z,14.19
2023-05-15T14:58:00.284Z,14.35
2023-05-15T15:02:02.402Z,14.46
2023-05-15T15:06:04.687Z,14.59
2023-05-15T15:10:07.055Z,14.61
2023-05-15T15:14:09.095Z,14.66
2023-05-15T15:18:11.232Z,14.75
2023-05-15T15:22:13.364Z,14.93
2023-05-15T15:26:15.726Z,15.08
2023-05-15T15:30:18.068Z,15.27
2023-05-15T15:34:20.413Z,15.43
2023-05-15T15:38:22.558Z,15.59
2023-05-15T15:42:25.032Z,15.73
2023-05-15T15:46:27.170Z,15.76
2023-05-15T15:50:29.501Z,15.69
2023-05-15T15:54:33.131Z,15.70
2023-05-15T15:58:35.305Z,15.66
2023-05-15T16:02:37.455Z,15.50
2023-05-15T16:06:39.857Z,15.37
2023-05-15T16:10:41.940Z,15.26
2023-05-15T16:14:44.304Z,15.13
2023-05-15T16:18:46.441Z,15.06
2023-05-15T16:22:48.640Z,15.01
2023-05-15T16:26:51.321Z,14.99
2023-05-15T16:30:53.661Z,14.87
2023-05-15T16:34:56.056Z,14.75
2023-05-15T16:38:59.942Z,14.65
2023-05-15T16:43:02.000Z,14.59
2023-05-15T16:47:04.357Z,14.57
2023-05-15T16:51:06.408Z,14.60
2023-05-15T16:55:08.524Z,14.60
2023-05-15T16:59:10.852Z,14.56
2023-05-15T17:03:13.309Z,14.49
2023-05-15T17:07:15.352Z,14.46
2023-05-15T17:11:17.448Z,14.40
2023-05-15T17:15:19.618Z,14.33
2023-05-15T17:19:21.691Z,14.28
2023-05-15T17:23:24.329Z,14.21
2023-05-15T17:27:26.410Z,14.08
2023-05-15T17:31:29.448Z,14.04
2023-05-15T17:35:33.024Z,14.00
2023-05-15T17:39:35.742Z,13.94
2023-05-15T17:43:37.783Z,13.97
2023-05-15T17:47:40.189Z,14.02
2023-05-15T17:51:42.213Z,14.06
2023-05-15T17:55:44.319Z,14.01
2023-05-15T17:59:46.429Z,13.99
2023-05-15T18:03:48.685Z,13.88
2023-05-15T18:07:50.718Z,13.84
2023-05-15T18:11:52.842Z,13.80
2023-05-15T18:15:54.933Z,13.86
2023-05-15T18:19:57.010Z,13.86
2023-05-15T18:23:59.037Z,13.73
2023-05-15T18:28:01.048Z,13.59
2023-05-15T18:32:03.298Z,13.49
2023-05-15T18:36:07.398Z,13.45
2023-05-15T18:40:10.462Z,13.60
2023-05-15T18:44:12.503Z,13.62
2023-05-15T18:48:14.792Z,13.68
2023-05-15T18:52:18.599Z,13.67
2023-05-15T18:56:21.813Z,13.64
2023-05-15T19:00:37.247Z,13.54
2023-05-15T19:04:40.617Z,13.34
2023-05-15T19:08:42.630Z,13.20
2023-05-15T19:12:45.268Z,13.04
2023-05-15T19:16:47.407Z,12.89
2023-05-15T19:20:50.451Z,12.77
2023-05-15T19:24:52.509Z,12.66
2023-05-15T19:28:54.937Z,12.54
2023-05-15T19:32:56.975Z,12.43
2023-05-15T19:36:59.022Z,12.34
2023-05-15T19:41:01.042Z,12.23
2023-05-15T19:45:03.178Z,12.16
2023-05-15T19:49:05.949Z,12.01
2023-05-15T19:53:08.264Z,11.78
2023-05-15T19:57:10.346Z,11.57
2023-05-15T20:01:12.368Z,11.53
2023-05-15T20:05:15.289Z,11.33
2023-05-15T20:09:17.296Z,11.12
2023-05-15T20:13:21.910Z,11.01
2023-05-15T20:17:24.156Z,10.93
2023-05-15T20:21:26.240Z,10.89
2023-05-15T20:25:29.454Z,10.77
2023-05-15T20:29:31.872Z,10.86
2023-05-15T20:33:33.934Z,10.99
2023-05-15T20:37:36.926Z,11.11
2023-05-15T20:41:38.937Z,11.19
2023-05-15T20:45:41.149Z,11.19
2023-05-15T20:49:43.747Z,11.21
2023-05-15T20:53:45.818Z,11.21
2023-05-15T20:57:48.987Z,11.21
2023-05-15T21:01:51.084Z,11.22
2023-05-15T21:05:54.833Z,11.15
2023-05-15T21:09:58.755Z,11.10
2023-05-15T21:14:01.293Z,11.02
2023-05-15T21:18:03.853Z,10.93
2023-05-15T21:22:06.498Z,10.85
2023-05-15T21:26:08.511Z,10.79
2023-05-15T21:30:11.485Z,10.73
2023-05-15T21:34:13.540Z,10.73
2023-05-15T21:38:15.829Z,10.75
2023-05-15T21:42:17.841Z,10.67
2023-05-15T21:46:20.129Z,10.60
2023-05-15T21:50:22.176Z,10.53
2023-05-15T21:54:24.310Z,10.44
2023-05-15T21:58:26.535Z,10.36
2023-05-15T22:02:28.588Z,10.29
2023-05-15T22:06:31.057Z,10.22
2023-05-15T22:10:33.076Z,10.15
2023-05-15T22:14:35.192Z,10.09
2023-05-15T22:18:37.735Z,10.04
2023-05-15T22:22:42.009Z,10.00
2023-05-15T22:26:44.043Z,9.99
2023-05-15T22:30:46.260Z,9.97
2023-05-15T22:34:48.296Z,9.94
2023-05-15T22:38:50.419Z,9.91
2023-05-15T22:42:52.457Z,9.90
2023-05-15T22:46:54.522Z,9.94
2023-05-15T22:50:57.783Z,9.95
2023-05-15T22:54:59.827Z,9.94
2023-05-15T22:59:01.849Z,9.90
2023-05-15T23:03:03.874Z,9.90
2023-05-15T23:07:06.212Z,9.95
2023-05-15T23:11:08.277Z,9.87
2023-05-15T23:15:10.668Z,9.80
2023-05-15T23:19:12.777Z,9.73
2023-05-15T23:23:15.144Z,9.68
2023-05-15T23:27:17.188Z,9.59
2023-05-15T23:31:20.042Z,9.54
2023-05-15T23:35:22.449Z,9.48
2023-05-15T23:39:24.559Z,9.44
2023-05-15T23:43:26.701Z,9.36
2023-05-15T23:47:29.129Z,9.30
2023-05-15T23:51:31.237Z,9.23
2023-05-15T23:55:33.252Z,9.20
2023-05-15T23:59:35.385Z,9.14
